Terminal Aerodrome Forecast
Issued by NWS

Home | Current Version | Previous Version | Graphics & Text | Print | Product List | Glossary On
Versions: 1 2 3 4 5 6 7 8 9 10 11 12 13 14 15 16 17 18 19 20 21 22 23 24 25 26 27 28 29 30 31
000
FTUS43 KGRB 291128
TAFRHI
TAF
KRHI 291128Z 2912/3012 18008KT P6SM BKN035 OVC060
      TEMPO 2912/2916 4SM SHRA BR BKN015
     FM291800 21010G17KT P6SM VCSH BKN035 BKN050
      TEMPO 2918/2921 BKN025
     FM292100 24008KT P6SM -SHRA BKN035 OVC050
      TEMPO 2921/3001 3SM TSRA BKN020CB
     FM300100 32005KT 4SM RA BR BKN010 OVC022
     FM300300 01007KT 4SM -DZ BR OVC005
     FM300900 01009KT 6SM -DZ BR BKN009 OVC015=

USA.gov is the U.S. government's official web portal to all federal, state and local government web resources and services.